createdAt,value
2022-08-22T00:02:18.804Z,2.63
2022-08-22T00:05:10.394Z,2.30
2022-08-22T00:07:48.582Z,2.47
2022-08-22T00:10:25.157Z,2.70
2022-08-22T00:13:15.255Z,2.47
2022-08-22T00:15:51.616Z,3.00
2022-08-22T00:18:28.284Z,2.67
2022-08-22T00:21:04.055Z,2.97
2022-08-22T00:23:41.372Z,3.27
2022-08-22T00:26:45.755Z,2.80
2022-08-22T00:29:25.357Z,3.40
2022-08-22T00:32:04.024Z,2.50
2022-08-22T00:34:38.202Z,3.20
2022-08-22T00:37:12.410Z,2.67
2022-08-22T00:39:52.600Z,3.27
2022-08-22T00:43:00.912Z,2.93
2022-08-22T00:45:42.414Z,3.30
2022-08-22T00:48:21.441Z,3.00
2022-08-22T00:51:03.535Z,3.10
2022-08-22T00:53:51.725Z,3.10
2022-08-22T00:56:50.600Z,3.27
2022-08-22T00:59:48.880Z,3.17
2022-08-22T01:02:37.344Z,3.10
2022-08-22T01:05:30.090Z,3.97
2022-08-22T01:08:23.706Z,3.40
2022-08-22T01:11:13.212Z,3.43
2022-08-22T01:14:03.911Z,3.77
2022-08-22T01:16:52.051Z,3.63
2022-08-22T01:19:43.301Z,3.70
2022-08-22T01:22:38.394Z,3.77
2022-08-22T01:25:26.231Z,3.90
2022-08-22T01:28:02.054Z,3.63
2022-08-22T01:30:50.394Z,3.60
2022-08-22T01:33:45.221Z,5.13
2022-08-22T01:36:41.324Z,4.27
2022-08-22T01:39:08.076Z,3.87
2022-08-22T01:41:43.348Z,3.37
2022-08-22T01:44:13.121Z,3.80
2022-08-22T01:46:58.185Z,4.43
2022-08-22T01:49:38.186Z,3.90
2022-08-22T01:52:23.624Z,4.53
2022-08-22T01:55:02.254Z,4.03
2022-08-22T01:57:29.309Z,3.73
2022-08-22T02:00:02.028Z,4.23
2022-08-22T02:02:52.193Z,3.80
2022-08-22T02:05:27.648Z,3.80
2022-08-22T02:08:00.463Z,4.00
2022-08-22T02:10:45.879Z,4.40
2022-08-22T02:13:13.077Z,4.80
2022-08-22T02:15:39.908Z,4.10
2022-08-22T02:18:06.665Z,4.40
2022-08-22T02:20:56.279Z,4.10
2022-08-22T02:23:52.279Z,4.23
2022-08-22T02:27:06.299Z,4.50
2022-08-22T02:30:07.194Z,4.70
2022-08-22T02:32:40.023Z,4.43
2022-08-22T02:35:13.869Z,4.67
2022-08-22T02:38:07.297Z,4.77
2022-08-22T02:41:11.804Z,4.43
2022-08-22T02:44:01.615Z,4.40
2022-08-22T02:46:47.188Z,5.30
2022-08-22T02:49:16.842Z,5.03
2022-08-22T02:52:03.114Z,5.53
2022-08-22T02:55:08.673Z,5.43
2022-08-22T02:58:02.982Z,5.50
2022-08-22T03:00:43.138Z,5.53
2022-08-22T03:03:19.365Z,5.77
2022-08-22T03:05:52.369Z,5.53
2022-08-22T03:08:22.134Z,6.00
2022-08-22T03:10:59.400Z,5.63
2022-08-22T03:13:37.203Z,6.00
2022-08-22T03:16:29.995Z,5.40
2022-08-22T03:19:18.865Z,6.30
2022-08-22T03:21:58.225Z,5.90
2022-08-22T03:24:34.365Z,6.10
2022-08-22T03:27:31.450Z,6.13
2022-08-22T03:30:10.148Z,5.63
2022-08-22T03:33:17.843Z,6.13
2022-08-22T03:35:44.961Z,6.30
2022-08-22T03:38:24.824Z,6.37
2022-08-22T03:41:12.404Z,6.57
2022-08-22T03:44:01.015Z,6.80
2022-08-22T03:46:33.996Z,6.67
2022-08-22T03:49:08.182Z,7.30
2022-08-22T03:52:02.793Z,7.23
2022-08-22T03:54:54.018Z,7.10
2022-08-22T03:57:51.553Z,7.70
2022-08-22T04:00:49.219Z,7.67
2022-08-22T04:03:41.608Z,7.40
2022-08-22T04:06:23.773Z,7.40
2022-08-22T04:09:16.082Z,8.13
2022-08-22T04:11:51.339Z,7.77
2022-08-22T04:14:34.157Z,8.60
2022-08-22T04:17:32.309Z,7.93
2022-08-22T04:20:26.238Z,7.80
2022-08-22T04:23:00.907Z,8.00
2022-08-22T04:25:40.114Z,7.70
2022-08-22T04:28:22.209Z,8.27
2022-08-22T04:30:53.078Z,8.57
2022-08-22T04:33:23.773Z,7.70
2022-08-22T04:36:13.566Z,8.83
2022-08-22T04:38:52.891Z,8.07
2022-08-22T04:41:46.753Z,8.07
2022-08-22T04:44:46.407Z,8.47
2022-08-22T04:47:29.340Z,8.67
2022-08-22T04:50:21.280Z,8.50
2022-08-22T04:53:25.533Z,8.00
2022-08-22T04:56:07.964Z,7.90
2022-08-22T04:59:00.964Z,7.67
2022-08-22T05:01:48.877Z,7.07
2022-08-22T05:04:29.262Z,7.13
2022-08-22T05:07:29.345Z,7.83
2022-08-22T05:10:20.323Z,7.70
2022-08-22T05:12:55.309Z,8.17
2022-08-22T05:15:35.263Z,6.43
2022-08-22T05:18:16.099Z,6.13
2022-08-22T05:20:47.237Z,5.80
2022-08-22T05:23:25.151Z,6.30
2022-08-22T05:25:56.434Z,6.40
2022-08-22T05:28:23.223Z,6.80
2022-08-22T05:30:51.373Z,6.57
2022-08-22T05:33:48.059Z,6.47
2022-08-22T05:36:26.584Z,6.13
2022-08-22T05:39:16.101Z,5.93
2022-08-22T05:41:44.723Z,5.90
2022-08-22T05:44:30.708Z,6.53
2022-08-22T05:47:12.363Z,5.23
2022-08-22T05:50:04.167Z,5.00
2022-08-22T05:52:36.907Z,4.63
2022-08-22T05:55:32.586Z,4.95
2022-08-22T05:58:17.980Z,4.32
2022-08-22T06:00:49.019Z,4.90
2022-08-22T06:03:31.791Z,4.70
2022-08-22T06:06:03.333Z,4.15
2022-08-22T06:08:35.863Z,4.25
2022-08-22T06:11:40.879Z,4.85
2022-08-22T06:14:37.387Z,4.72
2022-08-22T06:17:11.664Z,4.63
2022-08-22T06:19:43.097Z,4.60
2022-08-22T06:22:13.719Z,4.65
2022-08-22T06:24:44.097Z,4.28
2022-08-22T06:27:14.265Z,4.47
2022-08-22T06:30:01.673Z,4.18
2022-08-22T06:32:58.181Z,4.47
2022-08-22T06:35:52.295Z,4.10
2022-08-22T06:38:21.576Z,4.28
2022-08-22T06:40:50.757Z,3.97
2022-08-22T06:43:18.813Z,4.32
2022-08-22T06:45:45.931Z,4.72
2022-08-22T06:48:21.200Z,4.30
2022-08-22T06:51:01.543Z,4.55
2022-08-22T06:53:48.073Z,4.85
2022-08-22T06:56:35.158Z,4.65
2022-08-22T06:59:09.157Z,4.40
2022-08-22T07:01:49.978Z,4.00
2022-08-22T07:04:18.326Z,4.15
2022-08-22T07:06:50.407Z,4.13
2022-08-22T07:09:25.846Z,4.72
2022-08-22T07:11:55.562Z,4.57
2022-08-22T07:14:33.322Z,4.20
2022-08-22T07:17:08.292Z,4.82
2022-08-22T07:19:45.469Z,4.38
2022-08-22T07:22:34.870Z,4.40
2022-08-22T07:25:08.354Z,4.45
2022-08-22T07:27:41.154Z,4.43
2022-08-22T07:30:15.343Z,3.90
2022-08-22T07:33:26.645Z,4.03
2022-08-22T07:36:06.121Z,3.88
2022-08-22T07:38:33.168Z,3.67
2022-08-22T07:41:08.240Z,4.03
2022-08-22T07:43:51.741Z,4.05
2022-08-22T07:46:43.172Z,3.95
2022-08-22T07:50:00.371Z,3.80
2022-08-22T07:52:50.082Z,4.50
2022-08-22T07:55:20.786Z,3.97
2022-08-22T07:57:55.810Z,4.28
2022-08-22T08:00:24.248Z,4.05
2022-08-22T08:02:54.149Z,4.32
2022-08-22T08:05:24.404Z,3.95
2022-08-22T08:07:55.734Z,3.50
2022-08-22T08:10:31.337Z,4.18
2022-08-22T08:13:08.707Z,4.03
2022-08-22T08:15:39.160Z,3.72
2022-08-22T08:18:12.629Z,3.80
2022-08-22T08:20:39.868Z,4.00
2022-08-22T08:23:11.946Z,3.70
2022-08-22T08:26:05.768Z,3.88
2022-08-22T08:28:34.838Z,3.53
2022-08-22T08:31:31.998Z,3.38
2022-08-22T08:34:34.706Z,2.85
2022-08-22T08:37:14.808Z,2.95
2022-08-22T08:39:48.608Z,3.17
2022-08-22T08:43:22.693Z,2.80
2022-08-22T08:45:59.224Z,2.88
2022-08-22T08:48:38.795Z,3.00
2022-08-22T08:51:43.116Z,2.80
2022-08-22T08:54:37.850Z,2.78
2022-08-22T08:57:17.007Z,2.78
2022-08-22T09:00:12.270Z,2.35
2022-08-22T09:02:54.155Z,2.40
2022-08-22T09:05:49.300Z,2.22
2022-08-22T09:08:55.829Z,2.33
2022-08-22T09:11:31.479Z,2.35
2022-08-22T09:14:19.507Z,2.50
2022-08-22T09:17:34.112Z,2.40
2022-08-22T09:20:17.529Z,2.85
2022-08-22T09:23:25.799Z,2.90
2022-08-22T09:26:05.809Z,2.63
2022-08-22T09:28:44.674Z,3.20
2022-08-22T09:34:23.952Z,2.60
2022-08-22T09:37:22.664Z,2.30
2022-08-22T09:40:17.313Z,2.20
2022-08-22T09:42:59.242Z,2.40
2022-08-22T09:45:37.902Z,2.25
2022-08-22T09:48:43.239Z,2.08
2022-08-22T09:51:32.192Z,2.25
2022-08-22T09:54:32.793Z,2.13
2022-08-22T09:57:22.697Z,1.50
2022-08-22T10:00:13.558Z,1.75
2022-08-22T10:03:02.210Z,1.73
2022-08-22T10:05:40.872Z,1.95
2022-08-22T10:08:27.598Z,1.80
2022-08-22T10:11:15.540Z,1.52
2022-08-22T10:14:22.264Z,1.48
2022-08-22T10:16:54.773Z,2.08
2022-08-22T10:19:27.633Z,1.92
2022-08-22T10:22:32.224Z,1.80
2022-08-22T10:25:20.020Z,1.67
2022-08-22T10:28:16.654Z,1.73
2022-08-22T10:30:50.047Z,2.00
2022-08-22T10:33:55.056Z,1.73
2022-08-22T10:36:39.576Z,1.67
2022-08-22T10:39:11.931Z,1.60
2022-08-22T10:42:12.895Z,1.60
2022-08-22T10:45:06.614Z,1.65
2022-08-22T10:48:05.016Z,1.40
2022-08-22T10:50:43.465Z,1.77
2022-08-22T10:53:31.380Z,1.23
2022-08-22T10:56:16.172Z,1.42
2022-08-22T10:59:08.640Z,1.13
2022-08-22T11:01:47.582Z,1.58
2022-08-22T11:04:28.306Z,1.65
2022-08-22T11:07:36.823Z,1.40
2022-08-22T11:10:31.098Z,1.83
2022-08-22T11:13:26.718Z,1.60
2022-08-22T11:16:41.975Z,1.85
2022-08-22T11:19:14.956Z,1.70
2022-08-22T11:22:01.506Z,1.63
2022-08-22T11:24:54.020Z,1.75
2022-08-22T11:27:39.552Z,1.35
2022-08-22T11:30:18.387Z,2.15
2022-08-22T11:33:01.387Z,2.00
2022-08-22T11:35:47.686Z,1.98
2022-08-22T11:38:33.279Z,1.70
2022-08-22T11:41:21.965Z,1.88
2022-08-22T11:44:08.865Z,1.85
2022-08-22T11:46:39.515Z,1.88
2022-08-22T11:49:25.740Z,1.80
2022-08-22T11:52:05.640Z,1.90
2022-08-22T11:54:37.783Z,1.67
2022-08-22T11:57:17.719Z,1.80
2022-08-22T12:00:13.647Z,1.70
2022-08-22T12:03:04.786Z,1.48
2022-08-22T12:05:45.916Z,1.88
2022-08-22T12:08:33.672Z,1.73
2022-08-22T12:11:49.942Z,1.92
2022-08-22T12:14:27.072Z,1.60
2022-08-22T12:17:22.763Z,1.63
2022-08-22T12:20:45.576Z,1.55
2022-08-22T12:23:49.150Z,1.58
2022-08-22T12:26:45.121Z,1.83
2022-08-22T12:29:15.496Z,1.95
2022-08-22T12:31:58.745Z,1.63
2022-08-22T12:35:00.851Z,1.70
2022-08-22T12:38:29.427Z,1.80
2022-08-22T12:41:27.847Z,1.60
2022-08-22T12:44:29.123Z,1.60
2022-08-22T12:47:12.802Z,1.98
2022-08-22T12:50:17.552Z,1.50
2022-08-22T12:53:24.811Z,1.85
2022-08-22T12:56:06.688Z,1.73
2022-08-22T12:59:11.318Z,1.73
2022-08-22T13:01:48.013Z,1.60
2022-08-22T13:04:19.300Z,1.90
2022-08-22T13:07:09.642Z,1.90
2022-08-22T13:09:46.173Z,1.90
2022-08-22T13:12:29.495Z,2.20
2022-08-22T13:15:02.009Z,1.85
2022-08-22T13:17:30.270Z,1.67
2022-08-22T13:20:24.275Z,1.63
2022-08-22T13:22:54.500Z,1.77
2022-08-22T13:25:26.849Z,1.75
2022-08-22T13:28:00.250Z,1.83
2022-08-22T13:30:33.549Z,1.88
2022-08-22T13:33:13.598Z,1.50
2022-08-22T13:35:52.001Z,1.80
2022-08-22T13:38:46.299Z,1.30
2022-08-22T13:41:21.681Z,1.98
2022-08-22T13:44:07.501Z,1.83
2022-08-22T13:46:44.511Z,2.17
2022-08-22T13:49:33.368Z,1.60
2022-08-22T13:52:37.929Z,2.08
2022-08-22T13:55:43.079Z,1.80
2022-08-22T13:58:25.897Z,1.90
2022-08-22T14:01:16.112Z,1.63
2022-08-22T14:03:48.510Z,1.92
2022-08-22T14:06:51.078Z,1.90
2022-08-22T14:09:42.054Z,1.50
2022-08-22T14:12:33.401Z,1.92
2022-08-22T14:15:23.493Z,1.73
2022-08-22T14:18:00.852Z,2.78
2022-08-22T14:20:33.487Z,1.75
2022-08-22T14:23:06.909Z,1.70
2022-08-22T14:25:39.844Z,1.52
2022-08-22T14:28:28.691Z,2.05
2022-08-22T14:31:13.262Z,1.50
2022-08-22T14:33:48.597Z,1.52
2022-08-22T14:36:23.954Z,1.65
2022-08-22T14:39:04.631Z,1.80
2022-08-22T14:41:56.010Z,1.50
2022-08-22T14:44:29.365Z,1.45
2022-08-22T14:47:04.263Z,1.70
2022-08-22T14:49:48.802Z,1.60
2022-08-22T14:52:33.747Z,1.63
2022-08-22T14:55:10.053Z,1.80
2022-08-22T14:57:42.827Z,1.77
2022-08-22T15:00:12.797Z,1.83
2022-08-22T15:02:41.041Z,1.55
2022-08-22T15:05:28.169Z,1.60
2022-08-22T15:08:05.496Z,1.40
2022-08-22T15:10:34.366Z,8.48
2022-08-22T15:13:07.850Z,1.52
2022-08-22T15:15:49.286Z,1.58
2022-08-22T15:18:35.769Z,1.60
2022-08-22T15:21:06.878Z,1.50
2022-08-22T15:23:45.302Z,1.40
2022-08-22T15:26:39.625Z,1.60
2022-08-22T15:29:23.559Z,1.77
2022-08-22T15:31:52.750Z,1.83
2022-08-22T15:34:32.634Z,1.75
2022-08-22T15:37:01.553Z,1.77
2022-08-22T15:39:57.274Z,1.65
2022-08-22T15:42:34.906Z,1.40
2022-08-22T15:45:02.952Z,1.40
2022-08-22T15:47:40.530Z,1.60
2022-08-22T15:50:27.238Z,1.60
2022-08-22T15:53:17.555Z,1.50
2022-08-22T15:56:13.294Z,1.55
2022-08-22T15:58:49.877Z,1.80
2022-08-22T16:01:25.737Z,2.10
2022-08-22T16:04:13.999Z,1.80
2022-08-22T16:06:50.535Z,1.83
2022-08-22T16:09:36.377Z,1.77
2022-08-22T16:12:09.158Z,1.48
2022-08-22T16:14:35.974Z,6.93
2022-08-22T16:17:31.102Z,2.00
2022-08-22T16:20:21.182Z,1.65
2022-08-22T16:22:57.108Z,1.70
2022-08-22T16:25:45.498Z,1.95
2022-08-22T16:28:56.786Z,2.60
2022-08-22T16:31:25.125Z,1.70
2022-08-22T16:33:52.195Z,2.40
2022-08-22T16:36:19.171Z,1.70
2022-08-22T16:38:50.901Z,2.00
2022-08-22T16:41:44.304Z,2.05
2022-08-22T16:44:16.590Z,1.90
2022-08-22T16:46:46.346Z,1.80
2022-08-22T16:49:29.706Z,1.90
2022-08-22T16:52:21.212Z,1.70
2022-08-22T16:54:50.613Z,2.00
2022-08-22T16:58:05.990Z,2.05
2022-08-22T17:00:44.135Z,2.10
2022-08-22T17:03:19.868Z,3.50
2022-08-22T17:06:23.976Z,2.17
2022-08-22T17:09:06.959Z,2.13
2022-08-22T17:11:49.448Z,2.75
2022-08-22T17:14:27.028Z,1.98
2022-08-22T17:17:12.070Z,3.60
2022-08-22T17:20:05.521Z,3.17
2022-08-22T17:22:39.538Z,3.70
2022-08-22T17:25:23.960Z,3.35
2022-08-22T17:28:13.379Z,3.03
2022-08-22T17:31:01.688Z,3.88
2022-08-22T17:33:51.963Z,4.57
2022-08-22T17:36:41.064Z,4.55
2022-08-22T17:39:37.156Z,2.83
2022-08-22T17:42:25.227Z,2.70
2022-08-22T17:45:13.780Z,2.67
2022-08-22T17:47:49.021Z,2.78
2022-08-22T17:50:37.151Z,4.50
2022-08-22T17:53:24.785Z,3.30
2022-08-22T17:56:20.206Z,3.03
2022-08-22T17:59:31.368Z,2.40
2022-08-22T18:02:08.530Z,2.20
2022-08-22T18:05:01.832Z,2.60
2022-08-22T18:07:54.157Z,2.47
2022-08-22T18:10:46.199Z,2.72
2022-08-22T18:13:45.683Z,2.80
2022-08-22T18:16:29.424Z,2.92
2022-08-22T18:19:13.918Z,2.35
2022-08-22T18:21:51.771Z,2.65
2022-08-22T18:24:33.259Z,2.20
2022-08-22T18:27:09.402Z,2.67
2022-08-22T18:30:14.446Z,3.08
2022-08-22T18:33:07.280Z,3.10
2022-08-22T18:35:49.840Z,3.13
2022-08-22T18:38:20.410Z,2.40
2022-08-22T18:40:57.311Z,2.58
2022-08-22T18:43:41.332Z,2.58
2022-08-22T18:46:32.383Z,2.67
2022-08-22T18:49:25.405Z,2.92
2022-08-22T18:52:15.436Z,2.40
2022-08-22T18:55:23.712Z,2.30
2022-08-22T18:58:09.079Z,2.38
2022-08-22T19:01:06.553Z,2.50
2022-08-22T19:04:00.785Z,2.00
2022-08-22T19:06:42.726Z,2.40
2022-08-22T19:09:28.432Z,2.20
2022-08-22T19:12:26.173Z,2.40
2022-08-22T19:14:56.166Z,2.35
2022-08-22T19:17:43.180Z,2.30
2022-08-22T19:20:42.380Z,2.78
2022-08-22T19:23:34.201Z,2.53
2022-08-22T19:26:25.817Z,2.67
2022-08-22T19:28:56.182Z,2.42
2022-08-22T19:31:56.343Z,2.50
2022-08-22T19:34:29.320Z,2.72
2022-08-22T19:37:32.771Z,2.65
2022-08-22T19:40:11.081Z,2.90
2022-08-22T19:42:44.185Z,2.35
2022-08-22T19:45:29.134Z,2.63
2022-08-22T19:48:14.074Z,2.80
2022-08-22T19:50:42.105Z,2.60
2022-08-22T19:53:34.654Z,2.40
2022-08-22T19:56:28.414Z,2.35
2022-08-22T19:59:13.526Z,2.28
2022-08-22T20:01:55.508Z,2.40
2022-08-22T20:04:37.603Z,2.10
2022-08-22T20:07:31.140Z,2.13
2022-08-22T20:10:19.321Z,2.00
2022-08-22T20:13:07.746Z,2.28
2022-08-22T20:16:10.431Z,2.17
2022-08-22T20:19:07.426Z,3.20
2022-08-22T20:21:45.241Z,2.50
2022-08-22T20:24:22.307Z,2.40
2022-08-22T20:27:12.904Z,2.05
2022-08-22T20:29:46.385Z,1.92
2022-08-22T20:32:17.865Z,2.40
2022-08-22T20:34:46.150Z,2.55
2022-08-22T20:37:32.276Z,2.20
2022-08-22T20:40:54.629Z,2.28
2022-08-22T20:43:38.006Z,2.45
2022-08-22T20:46:23.987Z,2.30
2022-08-22T20:48:53.886Z,2.65
2022-08-22T20:51:24.954Z,2.20
2022-08-22T20:53:54.683Z,2.35
2022-08-22T20:56:52.678Z,2.30
2022-08-22T20:59:41.442Z,2.43
2022-08-22T21:02:10.778Z,2.28
2022-08-22T21:05:10.322Z,2.13
2022-08-22T21:07:40.290Z,2.55
2022-08-22T21:10:41.696Z,2.30
2022-08-22T21:13:33.478Z,2.15
2022-08-22T21:16:17.559Z,4.97
2022-08-22T21:18:49.793Z,2.20
2022-08-22T21:21:27.223Z,2.25
2022-08-22T21:24:00.354Z,2.15
2022-08-22T21:26:36.703Z,1.92
2022-08-22T21:29:08.691Z,2.25
2022-08-22T21:31:43.908Z,2.03
2022-08-22T21:34:51.990Z,2.15
2022-08-22T21:37:34.658Z,2.15
2022-08-22T21:40:17.877Z,2.00
2022-08-22T21:42:59.189Z,1.95
2022-08-22T21:45:27.798Z,1.88
2022-08-22T21:47:54.882Z,2.03
2022-08-22T21:50:23.339Z,2.33
2022-08-22T21:52:56.314Z,1.67
2022-08-22T21:55:26.950Z,1.90
2022-08-22T21:58:05.759Z,2.13
2022-08-22T22:00:48.891Z,1.90
2022-08-22T22:03:21.303Z,2.00
2022-08-22T22:05:52.800Z,2.15
2022-08-22T22:08:19.775Z,2.13
2022-08-22T22:10:48.941Z,1.90
2022-08-22T22:13:19.036Z,2.27
2022-08-22T22:15:47.896Z,2.10
2022-08-22T22:18:23.978Z,2.30
2022-08-22T22:20:52.285Z,2.03
2022-08-22T22:23:19.672Z,2.10
2022-08-22T22:25:47.399Z,1.90
2022-08-22T22:28:19.889Z,2.10
2022-08-22T22:30:50.528Z,2.30
2022-08-22T22:33:23.298Z,2.30
2022-08-22T22:35:52.158Z,2.03
2022-08-22T22:38:23.740Z,2.20
2022-08-22T22:40:51.291Z,2.30
2022-08-22T22:43:18.144Z,2.13
2022-08-22T22:45:44.938Z,1.80
2022-08-22T22:48:11.920Z,1.90
2022-08-22T22:50:44.969Z,2.00
2022-08-22T22:53:12.437Z,2.27
2022-08-22T22:55:48.112Z,2.38
2022-08-22T22:58:27.652Z,2.17
2022-08-22T23:00:55.136Z,2.20
2022-08-22T23:03:22.364Z,2.50
2022-08-22T23:05:49.197Z,1.85
2022-08-22T23:08:16.064Z,2.25
2022-08-22T23:10:42.916Z,2.00
2022-08-22T23:13:09.979Z,2.10
2022-08-22T23:15:37.446Z,2.20
2022-08-22T23:18:04.393Z,2.20
2022-08-22T23:20:31.380Z,2.10
2022-08-22T23:22:59.562Z,2.83
2022-08-22T23:25:26.675Z,2.20
2022-08-22T23:27:53.820Z,2.53
2022-08-22T23:30:21.897Z,2.90
2022-08-22T23:32:49.091Z,2.13
2022-08-22T23:35:15.890Z,2.17
2022-08-22T23:37:42.728Z,2.20
2022-08-22T23:40:10.481Z,2.25
2022-08-22T23:42:37.353Z,2.40
2022-08-22T23:45:04.709Z,2.47
2022-08-22T23:47:31.571Z,2.53
2022-08-22T23:49:58.394Z,1.98
2022-08-22T23:52:29.737Z,2.42
2022-08-22T23:54:56.654Z,2.33
2022-08-22T23:57:27.537Z,2.03
2022-08-22T23:59:57.617Z,1.98
